createdAt,value
2018-11-14T00:00:49.997Z,15.3
2018-11-14T00:02:50.011Z,15.0
2018-11-14T00:04:50.403Z,15.2
2018-11-14T00:06:49.620Z,15.9
2018-11-14T00:08:49.633Z,15.9
2018-11-14T00:10:49.701Z,16.0
2018-11-14T00:12:49.800Z,15.9
2018-11-14T00:14:49.935Z,16.2
2018-11-14T00:16:50.082Z,16.5
2018-11-14T00:18:50.094Z,16.5
2018-11-14T00:20:50.117Z,16.4
2018-11-14T00:22:50.165Z,16.4
2018-11-14T00:24:50.380Z,17.9
2018-11-14T00:26:50.458Z,17.9
2018-11-14T00:28:50.475Z,17.3
2018-11-14T00:30:49.555Z,17.6
2018-11-14T00:32:49.562Z,17.2
2018-11-14T00:34:50.388Z,17.3
2018-11-14T00:36:50.096Z,17.3
2018-11-14T00:38:50.069Z,17.5
2018-11-14T00:40:50.125Z,18.2
2018-11-14T00:42:50.178Z,18.0
2018-11-14T00:44:50.196Z,18.1
2018-11-14T00:46:50.415Z,18.1
2018-11-14T00:48:50.513Z,17.8
2018-11-14T00:50:49.539Z,18.9
2018-11-14T00:52:49.670Z,18.9
2018-11-14T00:54:49.702Z,19.0
2018-11-14T00:56:50.031Z,19.6
2018-11-14T00:58:50.080Z,19.6
2018-11-14T01:00:50.086Z,19.6
2018-11-14T01:02:50.107Z,18.2
2018-11-14T01:04:50.493Z,18.5
2018-11-14T01:06:49.779Z,18.5
2018-11-14T01:08:49.779Z,17.5
2018-11-14T01:10:49.808Z,18.7
2018-11-14T01:12:49.968Z,19.0
2018-11-14T01:14:50.013Z,19.0
2018-11-14T01:16:50.215Z,19.4
2018-11-14T01:18:50.288Z,19.0
2018-11-14T01:20:50.331Z,19.0
2018-11-14T01:22:50.383Z,19.3
2018-11-14T01:24:50.356Z,19.7
2018-11-14T01:26:49.594Z,19.7
2018-11-14T01:28:49.575Z,20.8
2018-11-14T01:30:49.679Z,19.9
2018-11-14T01:32:49.807Z,18.6
2018-11-14T01:34:50.168Z,18.6
2018-11-14T01:36:50.464Z,19.6
2018-11-14T01:38:49.690Z,19.9
2018-11-14T01:40:49.881Z,20.3
2018-11-14T01:42:49.918Z,19.6
2018-11-14T01:44:49.940Z,19.6
2018-11-14T01:46:50.185Z,19.7
2018-11-14T01:48:50.260Z,18.5
2018-11-14T01:50:50.313Z,17.1
2018-11-14T01:52:50.310Z,18.6
2018-11-14T01:54:50.260Z,18.6
2018-11-14T01:56:49.559Z,20.4
2018-11-14T01:58:49.595Z,19.9
2018-11-14T02:00:49.674Z,21.6
2018-11-14T02:02:49.691Z,21.6
2018-11-14T02:04:50.126Z,22.0
2018-11-14T02:06:50.287Z,20.5
2018-11-14T02:08:50.350Z,21.9
2018-11-14T02:10:50.339Z,21.9
2018-11-14T02:12:50.434Z,21.7
2018-11-14T02:14:49.651Z,21.0
2018-11-14T02:16:50.024Z,21.2
2018-11-14T02:18:50.123Z,22.1
2018-11-14T02:20:50.234Z,22.8
2018-11-14T02:22:50.433Z,22.8
2018-11-14T02:24:49.587Z,22.2
2018-11-14T02:26:49.901Z,21.7
2018-11-14T02:28:50.076Z,22.2
2018-11-14T02:30:50.287Z,22.3
2018-11-14T02:32:50.297Z,22.3
2018-11-14T02:34:49.670Z,20.5
2018-11-14T02:36:49.962Z,21.6
2018-11-14T02:38:49.990Z,20.8
2018-11-14T02:40:50.011Z,20.8
2018-11-14T02:42:49.999Z,21.5
2018-11-14T02:44:50.013Z,20.9
2018-11-14T02:46:50.181Z,21.5
2018-11-14T02:48:50.169Z,21.3
2018-11-14T02:50:50.149Z,21.3
2018-11-14T02:52:50.239Z,21.6
2018-11-14T02:54:50.261Z,21.1
2018-11-14T02:56:50.384Z,21.1
2018-11-14T02:58:50.435Z,21.8
2018-11-14T03:00:50.406Z,21.8
2018-11-14T03:02:50.485Z,21.4
2018-11-14T03:04:49.986Z,21.2
2018-11-14T03:06:50.186Z,21.7
2018-11-14T03:08:50.439Z,22.2
2018-11-14T03:10:50.489Z,22.0
2018-11-14T03:12:50.403Z,22.0
2018-11-14T03:14:50.404Z,21.4
2018-11-14T03:16:49.684Z,22.3
2018-11-14T03:18:49.729Z,22.2
2018-11-14T03:20:49.768Z,22.2
2018-11-14T03:22:49.740Z,22.2
2018-11-14T03:24:49.782Z,22.3
2018-11-14T03:26:49.953Z,22.1
2018-11-14T03:28:49.937Z,22.4
2018-11-14T03:30:49.961Z,22.4
2018-11-14T03:32:49.818Z,21.8
2018-11-14T03:34:49.988Z,21.8
2018-11-14T03:36:50.145Z,21.8
2018-11-14T03:38:49.958Z,22.1
2018-11-14T03:40:49.857Z,20.1
2018-11-14T03:42:49.715Z,21.8
2018-11-14T03:44:49.596Z,23.2
2018-11-14T03:46:49.808Z,23.2
2018-11-14T03:48:49.791Z,25.3
2018-11-14T03:50:49.788Z,26.1
2018-11-14T03:52:49.805Z,27.4
2018-11-14T03:54:49.821Z,26.7
2018-11-14T03:56:50.005Z,25.4
2018-11-14T03:58:49.959Z,25.4
2018-11-14T04:00:49.952Z,25.4
2018-11-14T04:02:49.956Z,25.1
2018-11-14T04:04:50.271Z,25.5
2018-11-14T04:06:49.570Z,27.0
2018-11-14T04:08:49.555Z,27.0
2018-11-14T04:10:49.662Z,25.8
2018-11-14T04:12:49.669Z,25.8
2018-11-14T04:14:49.744Z,25.8
2018-11-14T04:16:49.998Z,25.1
2018-11-14T04:18:50.001Z,24.4
2018-11-14T04:20:50.047Z,24.2
2018-11-14T04:22:50.107Z,24.1
2018-11-14T04:24:50.127Z,24.1
2018-11-14T04:26:50.309Z,24.6
2018-11-14T04:28:50.406Z,27.0
2018-11-14T04:30:50.401Z,27.0
2018-11-14T04:32:50.446Z,28.8
2018-11-14T04:34:49.954Z,28.0
2018-11-14T04:36:50.087Z,28.0
2018-11-14T04:38:50.075Z,27.7
2018-11-14T04:40:50.061Z,32.2
2018-11-14T04:42:50.212Z,34.5
2018-11-14T04:44:50.256Z,34.5
2018-11-14T04:46:49.531Z,32.6
2018-11-14T04:48:49.612Z,35.6
2018-11-14T04:50:49.635Z,32.4
2018-11-14T04:52:49.723Z,30.8
2018-11-14T04:54:49.821Z,27.7
2018-11-14T04:56:50.024Z,27.7
2018-11-14T04:58:50.033Z,27.5
2018-11-14T05:00:50.068Z,26.2
2018-11-14T05:02:50.063Z,26.7
2018-11-14T05:04:50.361Z,25.2
2018-11-14T05:06:49.615Z,25.2
2018-11-14T05:08:49.742Z,24.2
2018-11-14T05:10:49.799Z,26.3
2018-11-14T05:12:49.901Z,26.4
2018-11-14T05:14:50.090Z,28.2
2018-11-14T05:16:50.357Z,28.2
2018-11-14T05:18:50.413Z,27.7
2018-11-14T05:20:50.510Z,30.9
2018-11-14T05:22:49.613Z,30.4
2018-11-14T05:24:49.923Z,35.6
2018-11-14T05:26:49.912Z,35.6
2018-11-14T05:28:50.031Z,42.4
2018-11-14T05:30:50.066Z,33.3
2018-11-14T05:32:50.100Z,33.3
2018-11-14T05:34:50.367Z,30.4
2018-11-14T05:36:49.535Z,30.4
2018-11-14T05:38:49.640Z,30.8
2018-11-14T05:40:49.713Z,32.4
2018-11-14T05:42:49.787Z,33.4
2018-11-14T05:44:49.798Z,33.4
2018-11-14T05:46:49.998Z,27.9
2018-11-14T05:48:50.078Z,32.0
2018-11-14T05:50:50.084Z,31.5
2018-11-14T05:52:50.114Z,43.6
2018-11-14T05:54:50.308Z,43.6
2018-11-14T05:56:49.820Z,44.7
2018-11-14T05:58:49.823Z,35.1
2018-11-14T06:00:49.825Z,42.9
2018-11-14T06:02:49.801Z,38.7
2018-11-14T06:04:50.131Z,38.7
2018-11-14T06:06:50.312Z,38.7
2018-11-14T06:08:50.346Z,44.9
2018-11-14T06:10:50.312Z,37.5
2018-11-14T06:12:50.444Z,37.5
2018-11-14T06:14:50.497Z,36.4
2018-11-14T06:16:50.012Z,39.6
2018-11-14T06:18:49.993Z,57.8
2018-11-14T06:20:50.052Z,52.4
2018-11-14T06:22:50.052Z,52.4
2018-11-14T06:24:50.059Z,39.7
2018-11-14T06:26:50.368Z,40.5
2018-11-14T06:28:50.372Z,41.4
2018-11-14T06:30:50.445Z,46.7
2018-11-14T06:32:49.670Z,46.7
2018-11-14T06:34:50.122Z,32.5
2018-11-14T06:36:50.063Z,36.2
2018-11-14T06:38:50.091Z,40.5
2018-11-14T06:40:50.105Z,32.5
2018-11-14T06:42:50.133Z,32.5
2018-11-14T06:44:50.175Z,34.1
2018-11-14T06:46:50.398Z,33.9
2018-11-14T06:48:50.499Z,31.9
2018-11-14T06:50:50.518Z,35.5
2018-11-14T06:52:49.660Z,35.5
2018-11-14T06:54:49.767Z,52.0
2018-11-14T06:56:50.072Z,49.4
2018-11-14T06:58:50.427Z,39.0
2018-11-14T07:00:50.018Z,44.0
2018-11-14T07:02:50.114Z,44.0
2018-11-14T07:04:50.466Z,35.6
2018-11-14T07:06:50.047Z,34.9
2018-11-14T07:08:50.025Z,37.7
2018-11-14T07:10:50.159Z,37.7
2018-11-14T07:12:50.391Z,35.2
2018-11-14T07:14:50.349Z,36.4
2018-11-14T07:16:49.584Z,48.9
2018-11-14T07:18:49.584Z,50.7
2018-11-14T07:20:49.578Z,50.7
2018-11-14T07:22:49.729Z,34.0
2018-11-14T07:24:49.706Z,42.0
2018-11-14T07:26:50.005Z,30.1
2018-11-14T07:28:50.004Z,32.6
2018-11-14T07:30:50.077Z,32.6
2018-11-14T07:32:50.123Z,30.5
2018-11-14T07:34:50.431Z,32.8
2018-11-14T07:36:49.634Z,30.9
2018-11-14T07:38:49.770Z,30.7
2018-11-14T07:40:49.782Z,30.7
2018-11-14T07:42:49.785Z,28.8
2018-11-14T07:44:49.829Z,26.6
2018-11-14T07:46:49.990Z,25.4
2018-11-14T07:48:50.313Z,25.4
2018-11-14T07:50:49.652Z,25.0
2018-11-14T07:52:49.830Z,24.9
2018-11-14T07:54:50.071Z,25.2
2018-11-14T07:56:49.599Z,24.8
2018-11-14T07:58:49.643Z,24.8
2018-11-14T08:00:49.767Z,25.2
2018-11-14T08:02:49.988Z,25.2
2018-11-14T08:04:50.250Z,23.8
2018-11-14T08:06:49.843Z,23.4
2018-11-14T08:08:50.025Z,23.4
2018-11-14T08:10:49.624Z,23.4
2018-11-14T08:12:50.171Z,21.7
2018-11-14T08:14:50.209Z,21.6
2018-11-14T08:16:49.592Z,21.5
2018-11-14T08:18:49.639Z,21.5
2018-11-14T08:20:50.270Z,21.4
2018-11-14T08:22:50.277Z,19.5
2018-11-14T08:24:50.351Z,20.2
2018-11-14T08:26:49.812Z,20.2
2018-11-14T08:28:49.811Z,21.4
2018-11-14T08:30:49.860Z,20.5
2018-11-14T08:32:49.919Z,21.3
2018-11-14T08:34:50.175Z,20.7
2018-11-14T08:36:50.332Z,20.7
2018-11-14T08:38:50.342Z,20.2
2018-11-14T08:40:50.312Z,19.6
2018-11-14T08:42:50.418Z,19.4
2018-11-14T08:44:50.347Z,20.2
2018-11-14T08:46:50.472Z,20.2
2018-11-14T08:48:50.552Z,20.5
2018-11-14T08:50:49.555Z,19.6
2018-11-14T08:52:49.708Z,19.2
2018-11-14T08:54:49.684Z,19.4
2018-11-14T08:56:49.952Z,19.4
2018-11-14T08:58:49.973Z,20.6
2018-11-14T09:00:49.990Z,21.0
2018-11-14T09:02:50.108Z,21.0
2018-11-14T09:04:50.489Z,21.0
2018-11-14T09:06:49.750Z,21.6
2018-11-14T09:08:49.768Z,21.5
2018-11-14T09:10:49.795Z,21.3
2018-11-14T09:12:50.089Z,23.0
2018-11-14T09:14:50.420Z,23.0
2018-11-14T09:16:49.753Z,22.0
2018-11-14T09:18:50.167Z,21.0
2018-11-14T09:20:49.680Z,20.8
2018-11-14T09:22:49.720Z,19.8
2018-11-14T09:24:49.896Z,19.8
2018-11-14T09:26:49.519Z,19.7
2018-11-14T09:28:49.692Z,19.6
2018-11-14T09:30:49.920Z,19.7
2018-11-14T09:32:50.139Z,18.3
2018-11-14T09:34:49.777Z,17.9
2018-11-14T09:36:49.584Z,17.9
2018-11-14T09:38:49.823Z,17.6
2018-11-14T09:40:50.156Z,17.8
2018-11-14T09:42:49.578Z,18.5
2018-11-14T09:44:49.665Z,18.5
2018-11-14T09:46:49.980Z,18.0
2018-11-14T09:48:50.054Z,18.4
2018-11-14T09:50:50.168Z,17.8
2018-11-14T09:52:50.380Z,19.3
2018-11-14T09:54:50.362Z,19.3
2018-11-14T09:56:49.640Z,18.9
2018-11-14T09:58:50.267Z,18.8
2018-11-14T10:00:49.845Z,20.2
2018-11-14T10:02:49.989Z,19.7
2018-11-14T10:04:49.896Z,19.7
2018-11-14T10:06:50.145Z,20.2
2018-11-14T10:08:50.353Z,21.4
2018-11-14T10:10:49.637Z,20.6
2018-11-14T10:12:49.736Z,20.6
2018-11-14T10:14:49.715Z,21.0
2018-11-14T10:16:49.846Z,20.3
2018-11-14T10:18:49.907Z,20.3
2018-11-14T10:20:49.983Z,19.4
2018-11-14T10:22:49.946Z,20.2
2018-11-14T10:24:49.997Z,20.2
2018-11-14T10:26:50.252Z,19.8
2018-11-14T10:28:50.210Z,18.9
2018-11-14T10:30:50.414Z,19.9
2018-11-14T10:32:49.859Z,19.9
2018-11-14T10:34:50.242Z,20.5
2018-11-14T10:36:49.543Z,18.9
2018-11-14T10:38:49.543Z,20.7
2018-11-14T10:40:49.576Z,21.5
2018-11-14T10:42:49.783Z,21.5
2018-11-14T10:44:50.046Z,21.6
2018-11-14T10:46:50.223Z,23.1
2018-11-14T10:48:50.204Z,24.0
2018-11-14T10:50:50.336Z,24.0
2018-11-14T10:52:49.848Z,23.3
2018-11-14T10:54:49.824Z,24.3
2018-11-14T10:56:50.216Z,24.3
2018-11-14T10:58:50.262Z,23.3
2018-11-14T11:00:50.334Z,23.3
2018-11-14T11:02:50.494Z,23.0
2018-11-14T11:04:49.576Z,24.5
2018-11-14T11:06:49.859Z,23.1
2018-11-14T11:08:49.854Z,23.9
2018-11-14T11:10:49.891Z,23.0
2018-11-14T11:12:50.440Z,23.0
2018-11-14T11:14:50.507Z,23.6
2018-11-14T11:16:49.801Z,23.4
2018-11-14T11:18:49.943Z,22.1
2018-11-14T11:20:49.903Z,21.0
2018-11-14T11:22:49.947Z,21.0
2018-11-14T11:24:49.962Z,21.7
2018-11-14T11:26:50.108Z,22.4
2018-11-14T11:28:50.080Z,22.1
2018-11-14T11:30:50.323Z,22.1
2018-11-14T11:32:49.886Z,22.3
2018-11-14T11:34:50.113Z,22.1
2018-11-14T11:36:50.291Z,20.4
2018-11-14T11:38:50.234Z,20.4
2018-11-14T11:40:50.225Z,22.4
2018-11-14T11:42:50.228Z,22.4
2018-11-14T11:44:50.340Z,22.4
2018-11-14T11:46:50.487Z,21.4
2018-11-14T11:48:50.447Z,21.4
2018-11-14T11:50:50.524Z,21.6
2018-11-14T11:52:49.843Z,20.4
2018-11-14T11:54:49.788Z,22.1
2018-11-14T11:56:50.045Z,22.9
2018-11-14T11:58:50.041Z,22.9
2018-11-14T12:00:50.418Z,21.7
2018-11-14T12:02:49.964Z,24.9
2018-11-14T12:04:50.176Z,23.6
2018-11-14T12:06:50.321Z,20.8
2018-11-14T12:08:50.313Z,20.8
2018-11-14T12:10:50.596Z,21.3
2018-11-14T12:12:50.302Z,19.9
2018-11-14T12:14:49.541Z,19.1
2018-11-14T12:16:49.754Z,17.7
2018-11-14T12:18:49.810Z,17.7
2018-11-14T12:20:49.919Z,15.7
2018-11-14T12:22:49.945Z,15.9
2018-11-14T12:24:49.921Z,15.1
2018-11-14T12:26:50.170Z,15.1
2018-11-14T12:28:50.213Z,16.1
2018-11-14T12:30:50.651Z,14.6
2018-11-14T12:32:50.017Z,14.9
2018-11-14T12:34:50.721Z,15.1
2018-11-14T12:36:50.490Z,15.1
2018-11-14T12:38:49.788Z,13.9
2018-11-14T12:40:50.493Z,13.9
2018-11-14T12:42:49.617Z,20.1
2018-11-14T12:44:49.663Z,20.9
2018-11-14T12:46:49.919Z,20.9
2018-11-14T12:48:49.928Z,21.8
2018-11-14T12:50:49.967Z,21.8
2018-11-14T12:52:50.282Z,20.9
2018-11-14T12:54:49.788Z,23.7
2018-11-14T12:56:49.929Z,23.7
2018-11-14T12:58:49.863Z,22.5
2018-11-14T13:00:49.891Z,22.2
2018-11-14T13:02:49.883Z,23.1
2018-11-14T13:04:50.344Z,23.3
2018-11-14T13:06:50.513Z,23.3
2018-11-14T13:08:49.535Z,23.5
2018-11-14T13:10:49.630Z,22.3
2018-11-14T13:12:49.652Z,23.0
2018-11-14T13:14:49.663Z,22.8
2018-11-14T13:16:49.802Z,22.8
2018-11-14T13:18:49.838Z,22.9
2018-11-14T13:20:49.850Z,22.2
2018-11-14T13:22:49.845Z,23.0
2018-11-14T13:24:49.860Z,23.0
2018-11-14T13:26:50.039Z,23.5
2018-11-14T13:28:50.202Z,22.8
2018-11-14T13:30:49.536Z,24.1
2018-11-14T13:32:49.675Z,21.9
2018-11-14T13:34:50.196Z,21.9
2018-11-14T13:36:50.517Z,21.0
2018-11-14T13:38:49.606Z,21.1
2018-11-14T13:40:49.662Z,20.5
2018-11-14T13:42:49.666Z,20.5
2018-11-14T13:44:49.716Z,20.1
2018-11-14T13:46:49.875Z,19.9
2018-11-14T13:48:50.161Z,18.8
2018-11-14T13:50:50.189Z,12.4
2018-11-14T13:52:49.770Z,12.4
2018-11-14T13:54:49.796Z,13.5
2018-11-14T13:56:49.926Z,13.0
2018-11-14T13:58:49.906Z,10.9
2018-11-14T14:00:50.066Z,10.0
2018-11-14T14:02:50.183Z,10.5
2018-11-14T14:04:50.341Z,10.5
2018-11-14T14:06:50.465Z,10.7
2018-11-14T14:08:50.513Z,11.5
2018-11-14T14:10:50.487Z,11.3
2018-11-14T14:12:50.505Z,11.3
2018-11-14T14:14:50.511Z,10.4
2018-11-14T14:16:49.800Z,9.3
2018-11-14T14:18:49.769Z,8.4
2018-11-14T14:20:49.745Z,13.1
2018-11-14T14:22:49.789Z,12.5
2018-11-14T14:24:49.805Z,12.5
2018-11-14T14:26:50.033Z,11.5
2018-11-14T14:28:50.011Z,9.0
2018-11-14T14:30:50.208Z,7.7
2018-11-14T14:32:49.535Z,7.7
2018-11-14T14:34:49.963Z,8.7
2018-11-14T14:36:50.183Z,7.9
2018-11-14T14:38:50.153Z,8.1
2018-11-14T14:40:50.201Z,8.2
2018-11-14T14:42:50.279Z,8.2
2018-11-14T14:44:50.273Z,7.6
2018-11-14T14:46:50.486Z,8.2
2018-11-14T14:48:49.731Z,8.3
2018-11-14T14:50:50.316Z,8.2
2018-11-14T14:52:50.351Z,8.2
2018-11-14T14:54:49.518Z,8.6
2018-11-14T14:56:49.744Z,8.6
2018-11-14T14:58:49.768Z,7.5
2018-11-14T15:00:49.826Z,7.5
2018-11-14T15:02:49.843Z,8.1
2018-11-14T15:04:50.047Z,7.6
2018-11-14T15:06:50.360Z,7.5
2018-11-14T15:08:50.436Z,7.5
2018-11-14T15:10:50.433Z,7.1
2018-11-14T15:12:50.493Z,7.1
2018-11-14T15:14:50.504Z,7.0
2018-11-14T15:16:49.633Z,6.7
2018-11-14T15:18:49.652Z,7.1
2018-11-14T15:20:49.710Z,7.1
2018-11-14T15:22:49.977Z,7.8
2018-11-14T15:24:49.758Z,7.6
2018-11-14T15:26:50.046Z,7.8
2018-11-14T15:28:50.181Z,7.7
2018-11-14T15:30:49.513Z,7.7
2018-11-14T15:32:50.513Z,7.5
2018-11-14T15:34:49.959Z,6.7
2018-11-14T15:36:50.071Z,6.7
2018-11-14T15:38:50.048Z,7.1
2018-11-14T15:40:50.091Z,7.1
2018-11-14T15:42:50.537Z,6.7
2018-11-14T15:44:50.278Z,6.7
2018-11-14T15:46:49.541Z,7.0
2018-11-14T15:48:49.641Z,7.7
2018-11-14T15:50:49.626Z,7.7
2018-11-14T15:52:49.651Z,8.0
2018-11-14T15:54:49.715Z,7.6
2018-11-14T15:56:50.132Z,7.6
2018-11-14T15:58:50.176Z,8.3
2018-11-14T16:00:50.266Z,7.5
2018-11-14T16:02:50.322Z,7.6
2018-11-14T16:04:49.801Z,8.0
2018-11-14T16:06:50.061Z,8.6
2018-11-14T16:08:50.139Z,8.6
2018-11-14T16:10:50.170Z,7.9
2018-11-14T16:12:50.186Z,8.1
2018-11-14T16:14:50.148Z,8.1
2018-11-14T16:16:50.473Z,8.1
2018-11-14T16:18:49.558Z,8.2
2018-11-14T16:20:49.657Z,8.1
2018-11-14T16:22:49.723Z,8.5
2018-11-14T16:24:49.794Z,8.7
2018-11-14T16:26:50.134Z,8.4
2018-11-14T16:28:50.167Z,8.4
2018-11-14T16:30:50.164Z,8.7
2018-11-14T16:32:50.286Z,9.7
2018-11-14T16:34:49.736Z,9.7
2018-11-14T16:36:49.911Z,9.1
2018-11-14T16:38:49.965Z,8.7
2018-11-14T16:40:49.941Z,9.0
2018-11-14T16:42:49.935Z,8.8
2018-11-14T16:44:49.978Z,9.1
2018-11-14T16:46:50.292Z,9.1
2018-11-14T16:48:50.434Z,8.7
2018-11-14T16:50:50.495Z,8.6
2018-11-14T16:52:50.508Z,8.9
2018-11-14T16:54:49.598Z,9.4
2018-11-14T16:56:49.794Z,9.4
2018-11-14T16:58:49.828Z,9.7
2018-11-14T17:00:49.806Z,9.7
2018-11-14T17:02:49.841Z,10.7
2018-11-14T17:04:50.196Z,10.7
2018-11-14T17:06:50.473Z,11.2
2018-11-14T17:08:49.523Z,11.6
2018-11-14T17:10:49.580Z,11.6
2018-11-14T17:12:49.793Z,11.6
2018-11-14T17:14:49.865Z,11.8
2018-11-14T17:16:49.649Z,11.8
2018-11-14T17:18:49.640Z,12.0
2018-11-14T17:20:49.702Z,12.5
2018-11-14T17:22:49.769Z,12.3
2018-11-14T17:24:49.831Z,12.3
2018-11-14T17:26:50.125Z,12.1
2018-11-14T17:28:50.227Z,12.1
2018-11-14T17:30:50.200Z,12.5
2018-11-14T17:32:50.225Z,12.5
2018-11-14T17:34:49.721Z,13.0
2018-11-14T17:36:49.956Z,13.0
2018-11-14T17:38:49.980Z,13.5
2018-11-14T17:40:50.008Z,13.0
2018-11-14T17:42:50.260Z,12.8
2018-11-14T17:44:49.822Z,13.3
2018-11-14T17:46:50.053Z,13.3
2018-11-14T17:48:50.118Z,12.5
2018-11-14T17:50:50.281Z,14.1
2018-11-14T17:52:49.920Z,14.1
2018-11-14T17:54:49.943Z,14.1
2018-11-14T17:56:50.147Z,13.7
2018-11-14T17:58:50.134Z,15.1
2018-11-14T18:00:50.243Z,15.6
2018-11-14T18:02:50.642Z,14.9
2018-11-14T18:04:50.216Z,14.9
2018-11-14T18:06:50.322Z,14.5
2018-11-14T18:08:50.392Z,15.2
2018-11-14T18:10:50.346Z,15.6
2018-11-14T18:12:50.395Z,15.8
2018-11-14T18:14:50.378Z,15.8
2018-11-14T18:16:49.653Z,15.9
2018-11-14T18:18:49.727Z,17.0
2018-11-14T18:20:49.762Z,17.3
2018-11-14T18:22:49.780Z,16.6
2018-11-14T18:24:49.790Z,16.6
2018-11-14T18:26:49.947Z,16.7
2018-11-14T18:28:49.971Z,17.3
2018-11-14T18:30:49.922Z,17.3
2018-11-14T18:32:49.948Z,17.3
2018-11-14T18:34:50.237Z,16.9
2018-11-14T18:36:50.469Z,16.9
2018-11-14T18:38:49.553Z,16.8
2018-11-14T18:40:49.652Z,16.8
2018-11-14T18:42:49.692Z,16.8
2018-11-14T18:44:49.817Z,17.5
2018-11-14T18:46:49.944Z,18.1
2018-11-14T18:48:50.006Z,18.4
2018-11-14T18:50:50.021Z,18.2
2018-11-14T18:52:50.055Z,18.2
2018-11-14T18:54:50.084Z,18.0
2018-11-14T18:56:50.320Z,17.4
2018-11-14T18:58:50.321Z,17.9
2018-11-14T19:00:50.358Z,18.6
2018-11-14T19:02:50.289Z,18.6
2018-11-14T19:04:49.660Z,19.7
2018-11-14T19:06:50.114Z,19.3
2018-11-14T19:08:49.687Z,19.3
2018-11-14T19:10:49.696Z,19.5
2018-11-14T19:12:49.874Z,19.5
2018-11-14T19:14:50.485Z,20.7
2018-11-14T19:16:49.684Z,22.3
2018-11-14T19:18:49.893Z,23.1
2018-11-14T19:20:50.178Z,24.2
2018-11-14T19:22:50.205Z,24.2
2018-11-14T19:24:50.151Z,24.5
2018-11-14T19:26:50.405Z,24.2
2018-11-14T19:28:50.432Z,23.7
2018-11-14T19:30:50.832Z,24.1
2018-11-14T19:32:50.305Z,24.1
2018-11-14T19:34:49.710Z,22.9
2018-11-14T19:36:50.064Z,24.2
2018-11-14T19:38:50.048Z,22.2
2018-11-14T19:40:50.165Z,22.2
2018-11-14T19:42:50.423Z,24.4
2018-11-14T19:44:50.480Z,21.8
2018-11-14T19:46:49.764Z,19.6
2018-11-14T19:48:49.856Z,20.8
2018-11-14T19:50:49.876Z,20.8
2018-11-14T19:52:49.903Z,19.6
2018-11-14T19:54:49.865Z,20.2
2018-11-14T19:56:50.031Z,21.1
2018-11-14T19:58:50.031Z,21.1
2018-11-14T20:00:50.033Z,20.6
2018-11-14T20:02:50.017Z,19.4
2018-11-14T20:04:50.354Z,18.3
2018-11-14T20:06:49.643Z,19.2
2018-11-14T20:08:49.705Z,19.2
2018-11-14T20:10:49.810Z,18.1
2018-11-14T20:12:49.848Z,19.1
2018-11-14T20:14:49.873Z,19.8
2018-11-14T20:16:50.165Z,19.8
2018-11-14T20:18:50.153Z,18.9
2018-11-14T20:20:50.158Z,19.5
2018-11-14T20:22:50.244Z,18.6
2018-11-14T20:24:50.357Z,19.5
2018-11-14T20:26:49.557Z,20.0
2018-11-14T20:28:49.560Z,20.0
2018-11-14T20:30:49.618Z,21.5
2018-11-14T20:32:49.598Z,21.1
2018-11-14T20:34:49.935Z,22.0
2018-11-14T20:36:50.123Z,21.7
2018-11-14T20:38:50.120Z,21.7
2018-11-14T20:40:50.064Z,22.2
2018-11-14T20:42:50.231Z,22.6
2018-11-14T20:44:49.718Z,22.6
2018-11-14T20:46:49.918Z,21.5
2018-11-14T20:48:49.957Z,21.4
2018-11-14T20:50:50.043Z,20.8
2018-11-14T20:52:50.112Z,21.0
2018-11-14T20:54:50.111Z,20.1
2018-11-14T20:56:50.260Z,20.1
2018-11-14T20:58:50.280Z,19.8
2018-11-14T21:00:50.275Z,20.5
2018-11-14T21:02:50.332Z,21.0
2018-11-14T21:04:49.713Z,20.8
2018-11-14T21:06:50.027Z,20.9
2018-11-14T21:08:50.082Z,20.9
2018-11-14T21:10:50.158Z,21.3
2018-11-14T21:12:50.204Z,20.5
2018-11-14T21:14:50.209Z,20.5
2018-11-14T21:16:50.407Z,21.1
2018-11-14T21:18:50.368Z,21.1
2018-11-14T21:20:50.437Z,20.2
2018-11-14T21:22:50.626Z,20.3
2018-11-14T21:24:49.778Z,20.1
2018-11-14T21:26:49.997Z,20.1
2018-11-14T21:28:50.101Z,19.9
2018-11-14T21:30:50.166Z,20.4
2018-11-14T21:32:50.185Z,20.6
2018-11-14T21:34:49.539Z,20.1
2018-11-14T21:36:49.879Z,20.1
2018-11-14T21:38:49.902Z,20.0
2018-11-14T21:40:49.954Z,20.9
2018-11-14T21:42:50.058Z,20.9
2018-11-14T21:44:50.140Z,20.9
2018-11-14T21:46:50.524Z,21.0
2018-11-14T21:48:49.806Z,20.8
2018-11-14T21:50:49.803Z,20.7
2018-11-14T21:52:49.871Z,20.7
2018-11-14T21:54:49.799Z,21.6
2018-11-14T21:56:50.035Z,20.7
2018-11-14T21:58:50.029Z,20.3
2018-11-14T22:00:50.076Z,20.0
2018-11-14T22:02:50.037Z,21.5
2018-11-14T22:04:50.357Z,21.5
2018-11-14T22:06:49.621Z,21.5
2018-11-14T22:08:49.677Z,20.0
2018-11-14T22:10:49.752Z,19.7
2018-11-14T22:12:49.721Z,19.7
2018-11-14T22:14:49.713Z,20.2
2018-11-14T22:16:49.986Z,20.2
2018-11-14T22:18:50.086Z,20.2
2018-11-14T22:20:50.176Z,20.2
2018-11-14T22:22:50.276Z,20.3
2018-11-14T22:24:50.331Z,21.3
2018-11-14T22:26:50.475Z,20.9
2018-11-14T22:28:49.545Z,19.9
2018-11-14T22:30:49.592Z,20.7
2018-11-14T22:32:49.702Z,20.3
2018-11-14T22:34:50.315Z,20.3
2018-11-14T22:36:50.083Z,19.9
2018-11-14T22:38:50.086Z,17.9
2018-11-14T22:40:50.093Z,17.9
2018-11-14T22:42:50.185Z,20.6
2018-11-14T22:44:50.240Z,20.1
2018-11-14T22:46:50.387Z,20.3
2018-11-14T22:48:50.395Z,20.2
2018-11-14T22:50:50.365Z,20.2
2018-11-14T22:52:50.517Z,20.4
2018-11-14T22:54:49.547Z,20.3
2018-11-14T22:56:49.722Z,20.8
2018-11-14T22:58:49.853Z,20.8
2018-11-14T23:00:49.911Z,21.3
2018-11-14T23:02:49.942Z,21.3
2018-11-14T23:04:50.269Z,21.7
2018-11-14T23:06:49.563Z,21.8
2018-11-14T23:08:49.596Z,21.8
2018-11-14T23:10:49.657Z,20.3
2018-11-14T23:12:49.684Z,22.2
2018-11-14T23:14:49.824Z,22.2
2018-11-14T23:16:49.974Z,21.1
2018-11-14T23:18:49.972Z,21.1
2018-11-14T23:20:50.077Z,21.3
2018-11-14T23:22:50.112Z,21.3
2018-11-14T23:24:50.118Z,21.1
2018-11-14T23:26:50.428Z,21.5
2018-11-14T23:28:50.501Z,20.5
2018-11-14T23:30:50.502Z,22.5
2018-11-14T23:32:49.584Z,22.5
2018-11-14T23:34:50.084Z,22.5
2018-11-14T23:36:50.224Z,22.3
2018-11-14T23:38:50.291Z,21.5
2018-11-14T23:40:50.306Z,21.5
2018-11-14T23:42:50.310Z,21.5
2018-11-14T23:44:50.322Z,21.5
2018-11-14T23:46:49.585Z,20.9
2018-11-14T23:48:49.600Z,22.3
2018-11-14T23:50:49.743Z,22.3
2018-11-14T23:52:49.739Z,21.5
2018-11-14T23:54:49.725Z,20.8
2018-11-14T23:56:50.039Z,22.1
2018-11-14T23:58:50.053Z,22.1
